This is the latest recevied weather packets stored in our database for station/object WE0DX-1. If no packets are shown the sender has not sent any weather packets the latest 10 day(s).
| Time | Temp. | Humidity | Pressure | Rain* | Wind** | Luminosity | Snow |
|---|---|---|---|---|---|---|---|
| 1777739947 | 14.44° C | 34% | 1021.1 hPa | 0 mm | - | 885 W/m² | - |
| 1777739643 | 13.89° C | 34% | 1021.3 hPa | 0 mm | - | 857 W/m² | - |
| 1777739341 | 13.89° C | 33% | 1021.3 hPa | 0 mm | - | 851 W/m² | - |
| 1777739037 | 13.89° C | 33% | 1021.4 hPa | 0 mm | - | 864 W/m² | - |
| 1777738735 | 13.89° C | 34% | 1021.5 hPa | 0 mm | - | 859 W/m² | - |
| 1777738430 | 13.89° C | 36% | 1021.5 hPa | 0 mm | - | 834 W/m² | - |
| 1777738129 | 13.89° C | 35% | 1021.2 hPa | 0 mm | - | 789 W/m² | - |
| 1777737827 | 13.89° C | 37% | 1021.3 hPa | 0 mm | - | 772 W/m² | - |
| 1777737525 | 13.89° C | 36% | 1021.4 hPa | 0 mm | - | 733 W/m² | - |
| 1777737223 | 13.89° C | 40% | 1021.2 hPa | 0 mm | - | 757 W/m² | - |
| 1777736919 | 13.89° C | 35% | 1021.3 hPa | 0 mm | - | 774 W/m² | - |
| 1777736311 | 13.33° C | 33% | 1021.3 hPa | 0 mm | - | 712 W/m² | - |
| 1777736007 | 13.89° C | 37% | 1021.2 hPa | 0 mm | - | 678 W/m² | - |
| 1777735705 | 13.89° C | 38% | 1021.3 hPa | 0 mm | - | 633 W/m² | - |
| 1777735402 | 13.33° C | 40% | 1021.3 hPa | 0 mm | - | 617 W/m² | - |
| 1777735100 | 13.89° C | 39% | 1021.1 hPa | 0 mm | - | 637 W/m² | - |
| 1777734796 | 12.78° C | 41% | 1021.5 hPa | 0 mm | - | 626 W/m² | - |
| 1777734494 | 13.33° C | 42% | 1021.4 hPa | 0 mm | - | 582 W/m² | - |
| 1777734190 | 12.78° C | 44% | 1021.3 hPa | 0 mm | - | 553 W/m² | - |
| 1777733886 | 12.78° C | 44% | 1021.5 hPa | 0 mm | - | 528 W/m² | - |
| 1777733583 | 12.78° C | 47% | 1021.3 hPa | 0 mm | - | 500 W/m² | - |
| 1777733279 | 12.78° C | 45% | 1021.1 hPa | 0 mm | - | 475 W/m² | - |
| 1777732977 | 12.78° C | 47% | 1021.3 hPa | 0 mm | - | 455 W/m² | - |
| 1777732672 | 12.22° C | 47% | 1021.4 hPa | 0 mm | - | 423 W/m² | - |
| 1777732370 | 12.22° C | 48% | 1021.4 hPa | 0 mm | - | 400 W/m² | - |
* Rain latest hour (hover to see other rain measurements)
** Current wind speed in m/s (hover to see current wind gust speed)